sensor_id;sensor_type;location;lat;lon;timestamp;temperature;humidity
17986;DHT22;9118;48.122;11.546;2023-04-01T00:01:18;8.70;99.90
17986;DHT22;9118;48.122;11.546;2023-04-01T00:03:46;8.30;99.90
17986;DHT22;9118;48.122;11.546;2023-04-01T00:06:16;8.70;99.90
17986;DHT22;9118;48.122;11.546;2023-04-01T00:08:44;8.60;99.90
17986;DHT22;9118;48.122;11.546;2023-04-01T00:11:11;8.20;99.90
17986;DHT22;9118;48.122;11.546;2023-04-01T00:13:38;8.80;99.90
17986;DHT22;9118;48.122;11.546;2023-04-01T00:16:06;8.20;99.90
17986;DHT22;9118;48.122;11.546;2023-04-01T00:18:33;8.20;99.90
17986;DHT22;9118;48.122;11.546;2023-04-01T00:21:01;8.80;99.90
17986;DHT22;9118;48.122;11.546;2023-04-01T00:23:29;8.20;99.90
17986;DHT22;9118;48.122;11.546;2023-04-01T00:25:58;8.20;99.90
17986;DHT22;9118;48.122;11.546;2023-04-01T00:28:27;8.20;99.90
17986;DHT22;9118;48.122;11.546;2023-04-01T00:30:54;8.30;99.90
17986;DHT22;9118;48.122;11.546;2023-04-01T00:33:21;8.30;99.90
17986;DHT22;9118;48.122;11.546;2023-04-01T00:35:48;8.20;99.90
17986;DHT22;9118;48.122;11.546;2023-04-01T00:38:15;8.20;99.90
17986;DHT22;9118;48.122;11.546;2023-04-01T00:40:46;8.10;99.90
17986;DHT22;9118;48.122;11.546;2023-04-01T00:43:14;8.20;99.90
17986;DHT22;9118;48.122;11.546;2023-04-01T00:45:45;8.30;99.90
17986;DHT22;9118;48.122;11.546;2023-04-01T00:48:16;8.20;99.90
17986;DHT22;9118;48.122;11.546;2023-04-01T00:50:47;8.20;99.90
17986;DHT22;9118;48.122;11.546;2023-04-01T00:53:16;8.30;99.90
17986;DHT22;9118;48.122;11.546;2023-04-01T00:55:50;8.20;99.90
17986;DHT22;9118;48.122;11.546;2023-04-01T00:58:20;8.20;99.90
17986;DHT22;9118;48.122;11.546;2023-04-01T01:00:49;8.20;99.90
17986;DHT22;9118;48.122;11.546;2023-04-01T01:03:17;8.10;99.90
17986;DHT22;9118;48.122;11.546;2023-04-01T01:06:05;8.20;99.90
17986;DHT22;9118;48.122;11.546;2023-04-01T01:08:52;8.20;99.90
17986;DHT22;9118;48.122;11.546;2023-04-01T01:11:31;8.20;99.90
17986;DHT22;9118;48.122;11.546;2023-04-01T01:14:07;8.30;99.90
17986;DHT22;9118;48.122;11.546;2023-04-01T01:16:42;8.20;99.90
17986;DHT22;9118;48.122;11.546;2023-04-01T01:19:20;8.20;99.90
17986;DHT22;9118;48.122;11.546;2023-04-01T01:22:04;8.70;99.90
17986;DHT22;9118;48.122;11.546;2023-04-01T01:24:49;8.20;99.90
17986;DHT22;9118;48.122;11.546;2023-04-01T01:27:22;8.20;99.90
17986;DHT22;9118;48.122;11.546;2023-04-01T01:30:04;8.30;99.90
17986;DHT22;9118;48.122;11.546;2023-04-01T01:35:31;8.10;99.90
17986;DHT22;9118;48.122;11.546;2023-04-01T01:38:02;8.20;99.90
17986;DHT22;9118;48.122;11.546;2023-04-01T01:40:31;8.10;99.90
17986;DHT22;9118;48.122;11.546;2023-04-01T01:43:04;8.40;99.90
17986;DHT22;9118;48.122;11.546;2023-04-01T01:45:33;8.00;99.90
17986;DHT22;9118;48.122;11.546;2023-04-01T01:48:03;8.00;99.90
17986;DHT22;9118;48.122;11.546;2023-04-01T01:50:33;8.00;99.90
17986;DHT22;9118;48.122;11.546;2023-04-01T01:53:05;8.50;99.90
17986;DHT22;9118;48.122;11.546;2023-04-01T01:55:36;8.10;99.90
17986;DHT22;9118;48.122;11.546;2023-04-01T01:58:07;8.10;99.90
17986;DHT22;9118;48.122;11.546;2023-04-01T02:00:36;10.30;99.90
17986;DHT22;9118;48.122;11.546;2023-04-01T02:03:04;8.00;99.90
17986;DHT22;9118;48.122;11.546;2023-04-01T02:05:32;8.00;99.90
17986;DHT22;9118;48.122;11.546;2023-04-01T02:08:03;8.50;99.90
17986;DHT22;9118;48.122;11.546;2023-04-01T02:10:34;8.00;99.90
17986;DHT22;9118;48.122;11.546;2023-04-01T02:13:06;7.60;99.90
17986;DHT22;9118;48.122;11.546;2023-04-01T02:15:38;8.00;99.90
17986;DHT22;9118;48.122;11.546;2023-04-01T02:18:08;8.50;99.90
17986;DHT22;9118;48.122;11.546;2023-04-01T02:20:38;8.00;99.90
17986;DHT22;9118;48.122;11.546;2023-04-01T02:23:06;8.00;99.90
17986;DHT22;9118;48.122;11.546;2023-04-01T02:25:35;8.00;99.90
17986;DHT22;9118;48.122;11.546;2023-04-01T02:28:06;8.40;99.90
17986;DHT22;9118;48.122;11.546;2023-04-01T02:30:35;8.10;99.90
17986;DHT22;9118;48.122;11.546;2023-04-01T02:33:04;8.00;99.90
17986;DHT22;9118;48.122;11.546;2023-04-01T02:35:33;8.10;99.90
17986;DHT22;9118;48.122;11.546;2023-04-01T02:38:02;8.10;99.90
17986;DHT22;9118;48.122;11.546;2023-04-01T02:40:41;8.10;99.90
17986;DHT22;9118;48.122;11.546;2023-04-01T02:43:08;8.10;99.90
17986;DHT22;9118;48.122;11.546;2023-04-01T02:45:35;8.20;99.90
17986;DHT22;9118;48.122;11.546;2023-04-01T02:48:03;8.30;99.90
17986;DHT22;9118;48.122;11.546;2023-04-01T02:50:30;8.60;99.90
17986;DHT22;9118;48.122;11.546;2023-04-01T02:52:57;8.30;99.90
17986;DHT22;9118;48.122;11.546;2023-04-01T02:55:25;8.00;99.90
17986;DHT22;9118;48.122;11.546;2023-04-01T02:57:52;8.00;99.90
17986;DHT22;9118;48.122;11.546;2023-04-01T03:00:20;8.10;99.90
17986;DHT22;9118;48.122;11.546;2023-04-01T03:02:46;8.00;99.90
17986;DHT22;9118;48.122;11.546;2023-04-01T03:05:15;8.10;99.90
17986;DHT22;9118;48.122;11.546;2023-04-01T03:07:42;8.00;99.90
17986;DHT22;9118;48.122;11.546;2023-04-01T03:10:11;8.00;99.90
17986;DHT22;9118;48.122;11.546;2023-04-01T03:12:40;8.00;99.90
17986;DHT22;9118;48.122;11.546;2023-04-01T03:15:10;7.90;99.90
17986;DHT22;9118;48.122;11.546;2023-04-01T03:17:38;7.90;99.90
17986;DHT22;9118;48.122;11.546;2023-04-01T03:20:06;7.90;99.90
17986;DHT22;9118;48.122;11.546;2023-04-01T03:22:34;7.90;99.90
17986;DHT22;9118;48.122;11.546;2023-04-01T03:25:01;8.00;99.90
17986;DHT22;9118;48.122;11.546;2023-04-01T03:27:28;8.00;99.90
17986;DHT22;9118;48.122;11.546;2023-04-01T03:29:57;7.90;99.90
17986;DHT22;9118;48.122;11.546;2023-04-01T03:32:24;7.90;99.90
17986;DHT22;9118;48.122;11.546;2023-04-01T03:34:51;7.80;99.90
17986;DHT22;9118;48.122;11.546;2023-04-01T03:37:17;7.90;99.90
17986;DHT22;9118;48.122;11.546;2023-04-01T03:39:45;7.60;99.90
17986;DHT22;9118;48.122;11.546;2023-04-01T03:42:12;7.70;99.90
17986;DHT22;9118;48.122;11.546;2023-04-01T03:44:39;7.60;99.90
17986;DHT22;9118;48.122;11.546;2023-04-01T03:47:07;7.60;99.90
17986;DHT22;9118;48.122;11.546;2023-04-01T03:49:35;7.20;99.90
17986;DHT22;9118;48.122;11.546;2023-04-01T03:52:03;7.70;99.90
17986;DHT22;9118;48.122;11.546;2023-04-01T03:54:30;7.60;99.90
17986;DHT22;9118;48.122;11.546;2023-04-01T03:56:57;7.50;99.90
17986;DHT22;9118;48.122;11.546;2023-04-01T03:59:24;7.60;99.90
17986;DHT22;9118;48.122;11.546;2023-04-01T04:01:51;7.60;99.90
17986;DHT22;9118;48.122;11.546;2023-04-01T04:04:19;7.70;99.90
17986;DHT22;9118;48.122;11.546;2023-04-01T04:06:47;7.50;99.90
17986;DHT22;9118;48.122;11.546;2023-04-01T04:09:14;7.60;99.90
17986;DHT22;9118;48.122;11.546;2023-04-01T04:11:41;7.40;99.90
17986;DHT22;9118;48.122;11.546;2023-04-01T04:14:08;7.40;99.90
17986;DHT22;9118;48.122;11.546;2023-04-01T04:16:35;7.40;99.90
17986;DHT22;9118;48.122;11.546;2023-04-01T04:19:03;7.40;99.90
17986;DHT22;9118;48.122;11.546;2023-04-01T04:21:31;7.50;99.90
17986;DHT22;9118;48.122;11.546;2023-04-01T04:23:58;7.60;99.90
17986;DHT22;9118;48.122;11.546;2023-04-01T04:26:26;7.60;99.90
17986;DHT22;9118;48.122;11.546;2023-04-01T04:28:54;7.60;99.90
17986;DHT22;9118;48.122;11.546;2023-04-01T04:31:22;7.70;99.90
17986;DHT22;9118;48.122;11.546;2023-04-01T04:33:49;7.70;99.90
17986;DHT22;9118;48.122;11.546;2023-04-01T04:36:17;7.90;99.90
17986;DHT22;9118;48.122;11.546;2023-04-01T04:38:46;7.70;99.90
17986;DHT22;9118;48.122;11.546;2023-04-01T04:41:14;8.10;99.90
17986;DHT22;9118;48.122;11.546;2023-04-01T04:43:49;7.80;99.90
17986;DHT22;9118;48.122;11.546;2023-04-01T04:46:16;8.20;99.90
17986;DHT22;9118;48.122;11.546;2023-04-01T04:48:43;7.90;99.90
17986;DHT22;9118;48.122;11.546;2023-04-01T04:51:13;8.00;99.90
17986;DHT22;9118;48.122;11.546;2023-04-01T04:53:41;7.70;99.90
17986;DHT22;9118;48.122;11.546;2023-04-01T04:56:09;7.80;99.90
17986;DHT22;9118;48.122;11.546;2023-04-01T04:58:37;7.80;99.90
17986;DHT22;9118;48.122;11.546;2023-04-01T05:01:08;7.80;99.90
17986;DHT22;9118;48.122;11.546;2023-04-01T05:03:38;8.40;99.90
17986;DHT22;9118;48.122;11.546;2023-04-01T05:06:07;8.40;99.90
17986;DHT22;9118;48.122;11.546;2023-04-01T05:08:34;7.90;99.90
17986;DHT22;9118;48.122;11.546;2023-04-01T05:11:02;8.10;99.90
17986;DHT22;9118;48.122;11.546;2023-04-01T05:13:31;7.80;99.90
17986;DHT22;9118;48.122;11.546;2023-04-01T05:15:58;7.80;99.90
17986;DHT22;9118;48.122;11.546;2023-04-01T05:18:25;7.80;99.90
17986;DHT22;9118;48.122;11.546;2023-04-01T05:20:53;7.90;99.90
17986;DHT22;9118;48.122;11.546;2023-04-01T05:23:21;7.90;99.90
17986;DHT22;9118;48.122;11.546;2023-04-01T05:25:49;7.90;99.90
17986;DHT22;9118;48.122;11.546;2023-04-01T05:28:18;8.00;99.90
17986;DHT22;9118;48.122;11.546;2023-04-01T05:30:47;8.10;99.90
17986;DHT22;9118;48.122;11.546;2023-04-01T05:33:15;8.10;99.90
17986;DHT22;9118;48.122;11.546;2023-04-01T05:35:42;8.10;99.90
17986;DHT22;9118;48.122;11.546;2023-04-01T05:38:09;8.10;99.90
17986;DHT22;9118;48.122;11.546;2023-04-01T05:40:36;8.00;99.90
17986;DHT22;9118;48.122;11.546;2023-04-01T05:43:03;8.00;99.90
17986;DHT22;9118;48.122;11.546;2023-04-01T05:45:30;8.00;99.90
17986;DHT22;9118;48.122;11.546;2023-04-01T05:47:59;7.90;99.90
17986;DHT22;9118;48.122;11.546;2023-04-01T05:50:26;8.00;99.90
17986;DHT22;9118;48.122;11.546;2023-04-01T05:52:53;8.00;99.90
17986;DHT22;9118;48.122;11.546;2023-04-01T05:55:20;8.00;99.90
17986;DHT22;9118;48.122;11.546;2023-04-01T05:57:47;8.00;99.90
17986;DHT22;9118;48.122;11.546;2023-04-01T06:00:15;8.00;99.90
17986;DHT22;9118;48.122;11.546;2023-04-01T06:02:43;8.00;99.90
17986;DHT22;9118;48.122;11.546;2023-04-01T06:05:15;8.00;99.90
17986;DHT22;9118;48.122;11.546;2023-04-01T06:07:43;8.60;99.90
17986;DHT22;9118;48.122;11.546;2023-04-01T06:10:13;8.20;99.90
17986;DHT22;9118;48.122;11.546;2023-04-01T06:12:49;8.20;99.90
17986;DHT22;9118;48.122;11.546;2023-04-01T06:15:29;8.20;99.90
17986;DHT22;9118;48.122;11.546;2023-04-01T06:20:54;8.20;99.90
17986;DHT22;9118;48.122;11.546;2023-04-01T06:23:37;8.80;99.90
17986;DHT22;9118;48.122;11.546;2023-04-01T06:26:14;8.30;99.90
17986;DHT22;9118;48.122;11.546;2023-04-01T06:32:01;8.30;99.90
17986;DHT22;9118;48.122;11.546;2023-04-01T06:37:47;8.40;99.90
17986;DHT22;9118;48.122;11.546;2023-04-01T06:40:28;8.40;99.90
17986;DHT22;9118;48.122;11.546;2023-04-01T06:43:05;8.50;99.90
17986;DHT22;9118;48.122;11.546;2023-04-01T06:45:38;9.00;99.90
17986;DHT22;9118;48.122;11.546;2023-04-01T06:48:23;9.00;99.90
17986;DHT22;9118;48.122;11.546;2023-04-01T06:50:58;8.80;99.90
17986;DHT22;9118;48.122;11.546;2023-04-01T06:53:34;8.70;99.90
17986;DHT22;9118;48.122;11.546;2023-04-01T06:56:08;8.70;99.90
17986;DHT22;9118;48.122;11.546;2023-04-01T06:58:41;8.70;99.90
17986;DHT22;9118;48.122;11.546;2023-04-01T07:01:12;8.80;99.90
17986;DHT22;9118;48.122;11.546;2023-04-01T07:03:43;8.80;99.90
17986;DHT22;9118;48.122;11.546;2023-04-01T07:06:16;9.00;99.90
17986;DHT22;9118;48.122;11.546;2023-04-01T07:08:49;9.50;99.90
17986;DHT22;9118;48.122;11.546;2023-04-01T07:11:23;9.20;99.90
17986;DHT22;9118;48.122;11.546;2023-04-01T07:13:54;9.20;99.90
17986;DHT22;9118;48.122;11.546;2023-04-01T07:16:25;9.20;99.90
17986;DHT22;9118;48.122;11.546;2023-04-01T07:18:59;9.20;99.90
17986;DHT22;9118;48.122;11.546;2023-04-01T07:21:30;8.90;99.90
17986;DHT22;9118;48.122;11.546;2023-04-01T07:24:06;9.10;99.90
17986;DHT22;9118;48.122;11.546;2023-04-01T07:26:36;9.10;99.90
17986;DHT22;9118;48.122;11.546;2023-04-01T07:29:05;9.20;99.90
17986;DHT22;9118;48.122;11.546;2023-04-01T07:31:49;9.30;99.90
17986;DHT22;9118;48.122;11.546;2023-04-01T07:34:22;9.40;99.90
17986;DHT22;9118;48.122;11.546;2023-04-01T07:36:56;9.50;99.90
17986;DHT22;9118;48.122;11.546;2023-04-01T07:39:37;9.60;99.90
17986;DHT22;9118;48.122;11.546;2023-04-01T07:42:16;9.60;99.90
17986;DHT22;9118;48.122;11.546;2023-04-01T07:44:52;9.70;99.90
17986;DHT22;9118;48.122;11.546;2023-04-01T07:47:36;9.80;99.90
17986;DHT22;9118;48.122;11.546;2023-04-01T07:50:12;9.90;99.90
17986;DHT22;9118;48.122;11.546;2023-04-01T07:52:48;9.90;99.90
17986;DHT22;9118;48.122;11.546;2023-04-01T07:55:23;10.10;99.90
17986;DHT22;9118;48.122;11.546;2023-04-01T07:57:58;10.30;99.90
17986;DHT22;9118;48.122;11.546;2023-04-01T08:00:28;10.30;99.90
17986;DHT22;9118;48.122;11.546;2023-04-01T08:03:10;10.40;99.90
17986;DHT22;9118;48.122;11.546;2023-04-01T08:05:48;10.20;99.90
17986;DHT22;9118;48.122;11.546;2023-04-01T08:08:22;10.20;99.90
17986;DHT22;9118;48.122;11.546;2023-04-01T08:10:57;10.20;99.90
17986;DHT22;9118;48.122;11.546;2023-04-01T08:13:35;10.10;99.90
17986;DHT22;9118;48.122;11.546;2023-04-01T08:16:12;10.20;99.90
17986;DHT22;9118;48.122;11.546;2023-04-01T08:18:49;10.30;99.90
17986;DHT22;9118;48.122;11.546;2023-04-01T08:21:21;10.50;99.90
17986;DHT22;9118;48.122;11.546;2023-04-01T08:23:51;10.60;99.90
17986;DHT22;9118;48.122;11.546;2023-04-01T08:26:26;10.40;99.90
17986;DHT22;9118;48.122;11.546;2023-04-01T08:29:01;10.40;99.90
17986;DHT22;9118;48.122;11.546;2023-04-01T08:31:34;10.20;99.90
17986;DHT22;9118;48.122;11.546;2023-04-01T08:34:04;10.30;99.90
17986;DHT22;9118;48.122;11.546;2023-04-01T08:36:35;10.50;99.90
17986;DHT22;9118;48.122;11.546;2023-04-01T08:39:06;10.60;99.90
17986;DHT22;9118;48.122;11.546;2023-04-01T08:44:56;10.70;99.90
17986;DHT22;9118;48.122;11.546;2023-04-01T08:53:27;10.80;99.90
17986;DHT22;9118;48.122;11.546;2023-04-01T08:56:09;10.90;99.90
17986;DHT22;9118;48.122;11.546;2023-04-01T08:58:59;11.00;99.90
17986;DHT22;9118;48.122;11.546;2023-04-01T09:01:53;10.90;99.90
17986;DHT22;9118;48.122;11.546;2023-04-01T09:04:38;10.90;99.90
17986;DHT22;9118;48.122;11.546;2023-04-01T09:07:25;11.20;99.90
17986;DHT22;9118;48.122;11.546;2023-04-01T09:10:21;11.30;99.90
17986;DHT22;9118;48.122;11.546;2023-04-01T09:12:57;11.40;99.90
17986;DHT22;9118;48.122;11.546;2023-04-01T09:15:47;11.20;99.90
17986;DHT22;9118;48.122;11.546;2023-04-01T09:21:28;11.90;99.90
17986;DHT22;9118;48.122;11.546;2023-04-01T09:24:20;12.10;99.90
17986;DHT22;9118;48.122;11.546;2023-04-01T09:27:03;12.40;99.90
17986;DHT22;9118;48.122;11.546;2023-04-01T09:30:02;12.40;99.90
17986;DHT22;9118;48.122;11.546;2023-04-01T09:32:58;12.40;99.90
17986;DHT22;9118;48.122;11.546;2023-04-01T09:35:39;12.10;99.90
17986;DHT22;9118;48.122;11.546;2023-04-01T09:38:21;11.90;99.90
17986;DHT22;9118;48.122;11.546;2023-04-01T09:40:55;12.00;99.90
17986;DHT22;9118;48.122;11.546;2023-04-01T09:43:27;11.90;99.90
17986;DHT22;9118;48.122;11.546;2023-04-01T09:46:26;11.90;99.90
17986;DHT22;9118;48.122;11.546;2023-04-01T09:52:14;12.30;99.90
17986;DHT22;9118;48.122;11.546;2023-04-01T09:54:59;12.60;99.90
17986;DHT22;9118;48.122;11.546;2023-04-01T09:58:04;12.70;99.90
17986;DHT22;9118;48.122;11.546;2023-04-01T10:01:14;12.50;99.90
17986;DHT22;9118;48.122;11.546;2023-04-01T10:04:23;12.60;99.90
17986;DHT22;9118;48.122;11.546;2023-04-01T10:19:28;12.40;99.90
17986;DHT22;9118;48.122;11.546;2023-04-01T10:22:21;12.50;99.90
17986;DHT22;9118;48.122;11.546;2023-04-01T10:25:19;12.70;99.90
17986;DHT22;9118;48.122;11.546;2023-04-01T10:28:25;12.60;99.90
17986;DHT22;9118;48.122;11.546;2023-04-01T10:34:37;12.80;99.90
17986;DHT22;9118;48.122;11.546;2023-04-01T10:37:22;13.00;99.90
17986;DHT22;9118;48.122;11.546;2023-04-01T10:40:15;13.00;99.90
17986;DHT22;9118;48.122;11.546;2023-04-01T10:43:08;12.60;99.90
17986;DHT22;9118;48.122;11.546;2023-04-01T10:46:24;12.30;99.90
17986;DHT22;9118;48.122;11.546;2023-04-01T10:55:37;12.40;99.90
17986;DHT22;9118;48.122;11.546;2023-04-01T11:01:26;12.50;99.90
17986;DHT22;9118;48.122;11.546;2023-04-01T11:04:38;12.60;99.90
17986;DHT22;9118;48.122;11.546;2023-04-01T11:07:43;12.70;99.90
17986;DHT22;9118;48.122;11.546;2023-04-01T11:16:54;11.50;99.90
17986;DHT22;9118;48.122;11.546;2023-04-01T11:22:56;12.00;99.90
17986;DHT22;9118;48.122;11.546;2023-04-01T11:25:36;11.90;99.90
17986;DHT22;9118;48.122;11.546;2023-04-01T11:28:40;11.70;99.90
17986;DHT22;9118;48.122;11.546;2023-04-01T11:31:43;11.80;99.90
17986;DHT22;9118;48.122;11.546;2023-04-01T11:37:36;11.90;99.90
17986;DHT22;9118;48.122;11.546;2023-04-01T11:40:12;11.10;99.90
17986;DHT22;9118;48.122;11.546;2023-04-01T11:42:46;11.20;99.90
17986;DHT22;9118;48.122;11.546;2023-04-01T11:45:21;11.10;99.90
17986;DHT22;9118;48.122;11.546;2023-04-01T11:48:01;10.80;99.90
17986;DHT22;9118;48.122;11.546;2023-04-01T11:50:47;10.90;99.90
17986;DHT22;9118;48.122;11.546;2023-04-01T11:53:35;10.70;99.90
17986;DHT22;9118;48.122;11.546;2023-04-01T11:56:11;10.70;99.90
17986;DHT22;9118;48.122;11.546;2023-04-01T11:59:00;10.90;99.90
17986;DHT22;9118;48.122;11.546;2023-04-01T12:01:53;11.00;99.90
17986;DHT22;9118;48.122;11.546;2023-04-01T12:04:47;10.60;99.90
17986;DHT22;9118;48.122;11.546;2023-04-01T12:07:40;10.70;99.90
17986;DHT22;9118;48.122;11.546;2023-04-01T12:10:17;11.00;99.90
17986;DHT22;9118;48.122;11.546;2023-04-01T12:12:51;11.00;99.90
17986;DHT22;9118;48.122;11.546;2023-04-01T12:15:25;11.20;99.90
17986;DHT22;9118;48.122;11.546;2023-04-01T12:17:59;11.20;99.90
17986;DHT22;9118;48.122;11.546;2023-04-01T12:20:37;11.00;99.90
17986;DHT22;9118;48.122;11.546;2023-04-01T12:26:22;10.90;99.90
17986;DHT22;9118;48.122;11.546;2023-04-01T12:29:06;10.80;99.90
17986;DHT22;9118;48.122;11.546;2023-04-01T12:31:46;10.80;99.90
17986;DHT22;9118;48.122;11.546;2023-04-01T12:37:35;10.90;99.90
17986;DHT22;9118;48.122;11.546;2023-04-01T12:40:24;10.90;99.90
17986;DHT22;9118;48.122;11.546;2023-04-01T12:43:07;10.50;99.90
17986;DHT22;9118;48.122;11.546;2023-04-01T12:45:41;10.50;99.90
17986;DHT22;9118;48.122;11.546;2023-04-01T12:51:24;10.70;99.90
17986;DHT22;9118;48.122;11.546;2023-04-01T12:54:22;10.60;99.90
17986;DHT22;9118;48.122;11.546;2023-04-01T12:57:02;10.70;99.90
17986;DHT22;9118;48.122;11.546;2023-04-01T12:59:59;10.70;99.90
17986;DHT22;9118;48.122;11.546;2023-04-01T13:02:39;10.80;99.90
17986;DHT22;9118;48.122;11.546;2023-04-01T13:05:24;10.60;99.90
17986;DHT22;9118;48.122;11.546;2023-04-01T13:08:31;10.60;99.90
17986;DHT22;9118;48.122;11.546;2023-04-01T13:11:18;10.50;99.90
17986;DHT22;9118;48.122;11.546;2023-04-01T13:14:09;10.40;99.90
17986;DHT22;9118;48.122;11.546;2023-04-01T13:16:46;10.40;99.90
17986;DHT22;9118;48.122;11.546;2023-04-01T13:19:21;10.50;99.90
17986;DHT22;9118;48.122;11.546;2023-04-01T13:21:57;10.40;99.90
17986;DHT22;9118;48.122;11.546;2023-04-01T13:24:35;10.10;99.90
17986;DHT22;9118;48.122;11.546;2023-04-01T13:27:09;10.00;99.90
17986;DHT22;9118;48.122;11.546;2023-04-01T13:29:43;10.10;99.90
17986;DHT22;9118;48.122;11.546;2023-04-01T13:32:29;10.20;99.90
17986;DHT22;9118;48.122;11.546;2023-04-01T13:35:17;10.20;99.90
17986;DHT22;9118;48.122;11.546;2023-04-01T13:37:54;10.20;99.90
17986;DHT22;9118;48.122;11.546;2023-04-01T13:40:42;10.20;99.90
17986;DHT22;9118;48.122;11.546;2023-04-01T13:43:18;10.10;99.90
17986;DHT22;9118;48.122;11.546;2023-04-01T13:46:09;9.80;99.90
17986;DHT22;9118;48.122;11.546;2023-04-01T13:49:11;9.80;99.90
17986;DHT22;9118;48.122;11.546;2023-04-01T13:55:06;9.90;99.90
17986;DHT22;9118;48.122;11.546;2023-04-01T13:57:49;10.20;99.90
17986;DHT22;9118;48.122;11.546;2023-04-01T14:00:28;10.10;99.90
17986;DHT22;9118;48.122;11.546;2023-04-01T14:03:10;10.10;99.90
17986;DHT22;9118;48.122;11.546;2023-04-01T14:05:53;10.30;99.90
17986;DHT22;9118;48.122;11.546;2023-04-01T14:08:34;10.40;99.90
17986;DHT22;9118;48.122;11.546;2023-04-01T14:11:13;10.60;99.90
17986;DHT22;9118;48.122;11.546;2023-04-01T14:13:52;10.80;99.90
17986;DHT22;9118;48.122;11.546;2023-04-01T14:16:51;10.80;99.90
17986;DHT22;9118;48.122;11.546;2023-04-01T14:19:39;10.80;99.90
17986;DHT22;9118;48.122;11.546;2023-04-01T14:22:20;10.60;99.90
17986;DHT22;9118;48.122;11.546;2023-04-01T14:25:04;10.60;99.90
17986;DHT22;9118;48.122;11.546;2023-04-01T14:27:44;10.50;99.90
17986;DHT22;9118;48.122;11.546;2023-04-01T14:33:25;10.30;99.90
17986;DHT22;9118;48.122;11.546;2023-04-01T14:36:10;10.40;99.90
17986;DHT22;9118;48.122;11.546;2023-04-01T14:38:51;10.40;99.90
17986;DHT22;9118;48.122;11.546;2023-04-01T14:41:29;10.40;99.90
17986;DHT22;9118;48.122;11.546;2023-04-01T14:44:16;10.50;99.90
17986;DHT22;9118;48.122;11.546;2023-04-01T14:47:11;10.50;99.90
17986;DHT22;9118;48.122;11.546;2023-04-01T14:49:43;10.50;99.90
17986;DHT22;9118;48.122;11.546;2023-04-01T14:52:16;10.50;99.90
17986;DHT22;9118;48.122;11.546;2023-04-01T14:54:46;10.60;99.90
17986;DHT22;9118;48.122;11.546;2023-04-01T14:57:20;10.70;99.90
17986;DHT22;9118;48.122;11.546;2023-04-01T14:59:51;10.60;99.90
17986;DHT22;9118;48.122;11.546;2023-04-01T15:02:36;10.80;99.90
17986;DHT22;9118;48.122;11.546;2023-04-01T15:05:16;10.70;99.90
17986;DHT22;9118;48.122;11.546;2023-04-01T15:11:20;10.60;99.90
17986;DHT22;9118;48.122;11.546;2023-04-01T15:16:55;10.40;99.90
17986;DHT22;9118;48.122;11.546;2023-04-01T15:19:38;10.40;99.90
17986;DHT22;9118;48.122;11.546;2023-04-01T15:22:25;10.40;99.90
17986;DHT22;9118;48.122;11.546;2023-04-01T15:25:13;12.10;99.90
17986;DHT22;9118;48.122;11.546;2023-04-01T15:27:47;10.30;99.90
17986;DHT22;9118;48.122;11.546;2023-04-01T15:30:28;10.40;99.90
17986;DHT22;9118;48.122;11.546;2023-04-01T15:36:03;10.50;99.90
17986;DHT22;9118;48.122;11.546;2023-04-01T15:38:36;10.40;99.90
17986;DHT22;9118;48.122;11.546;2023-04-01T15:41:14;10.50;99.90
17986;DHT22;9118;48.122;11.546;2023-04-01T15:43:44;10.60;99.90
17986;DHT22;9118;48.122;11.546;2023-04-01T15:46:30;10.70;99.90
17986;DHT22;9118;48.122;11.546;2023-04-01T15:49:15;10.60;99.90
17986;DHT22;9118;48.122;11.546;2023-04-01T15:51:55;10.60;99.90
17986;DHT22;9118;48.122;11.546;2023-04-01T15:54:31;11.00;99.90
17986;DHT22;9118;48.122;11.546;2023-04-01T15:57:15;11.10;99.90
17986;DHT22;9118;48.122;11.546;2023-04-01T16:00:13;11.00;99.90
17986;DHT22;9118;48.122;11.546;2023-04-01T16:02:47;11.10;99.90
17986;DHT22;9118;48.122;11.546;2023-04-01T16:05:28;11.00;99.90
17986;DHT22;9118;48.122;11.546;2023-04-01T16:08:14;11.20;99.90
17986;DHT22;9118;48.122;11.546;2023-04-01T16:11:02;11.10;99.90
17986;DHT22;9118;48.122;11.546;2023-04-01T16:13:48;11.00;99.90
17986;DHT22;9118;48.122;11.546;2023-04-01T16:16:28;10.80;99.90
17986;DHT22;9118;48.122;11.546;2023-04-01T16:19:17;10.90;99.90
17986;DHT22;9118;48.122;11.546;2023-04-01T16:21:48;10.80;99.90
17986;DHT22;9118;48.122;11.546;2023-04-01T16:24:23;10.90;99.90
17986;DHT22;9118;48.122;11.546;2023-04-01T16:26:54;10.90;99.90
17986;DHT22;9118;48.122;11.546;2023-04-01T16:29:32;10.70;99.90
17986;DHT22;9118;48.122;11.546;2023-04-01T16:32:23;10.80;99.90
17986;DHT22;9118;48.122;11.546;2023-04-01T16:35:28;10.70;99.90
17986;DHT22;9118;48.122;11.546;2023-04-01T16:38:03;10.70;99.90
17986;DHT22;9118;48.122;11.546;2023-04-01T16:40:41;10.40;99.90
17986;DHT22;9118;48.122;11.546;2023-04-01T16:43:20;10.60;99.90
17986;DHT22;9118;48.122;11.546;2023-04-01T16:45:57;10.60;99.90
17986;DHT22;9118;48.122;11.546;2023-04-01T16:48:49;10.70;99.90
17986;DHT22;9118;48.122;11.546;2023-04-01T16:51:18;10.60;99.90
17986;DHT22;9118;48.122;11.546;2023-04-01T16:53:48;10.40;99.90
17986;DHT22;9118;48.122;11.546;2023-04-01T16:56:21;10.40;99.90
17986;DHT22;9118;48.122;11.546;2023-04-01T16:59:03;10.30;99.90
17986;DHT22;9118;48.122;11.546;2023-04-01T17:01:43;10.20;99.90
17986;DHT22;9118;48.122;11.546;2023-04-01T17:04:19;10.10;99.90
17986;DHT22;9118;48.122;11.546;2023-04-01T17:06:54;10.10;99.90
17986;DHT22;9118;48.122;11.546;2023-04-01T17:09:47;9.80;99.90
17986;DHT22;9118;48.122;11.546;2023-04-01T17:12:22;10.00;99.90
17986;DHT22;9118;48.122;11.546;2023-04-01T17:15:00;10.00;99.90
17986;DHT22;9118;48.122;11.546;2023-04-01T17:17:34;9.90;99.90
17986;DHT22;9118;48.122;11.546;2023-04-01T17:20:14;9.90;99.90
17986;DHT22;9118;48.122;11.546;2023-04-01T17:22:49;9.80;99.90
17986;DHT22;9118;48.122;11.546;2023-04-01T17:25:32;10.00;99.90
17986;DHT22;9118;48.122;11.546;2023-04-01T17:28:09;9.90;99.90
17986;DHT22;9118;48.122;11.546;2023-04-01T17:30:42;9.90;99.90
17986;DHT22;9118;48.122;11.546;2023-04-01T17:33:31;9.90;99.90
17986;DHT22;9118;48.122;11.546;2023-04-01T17:36:12;10.00;99.90
17986;DHT22;9118;48.122;11.546;2023-04-01T17:38:57;9.80;99.90
17986;DHT22;9118;48.122;11.546;2023-04-01T17:41:36;9.80;99.90
17986;DHT22;9118;48.122;11.546;2023-04-01T17:44:21;9.80;99.90
17986;DHT22;9118;48.122;11.546;2023-04-01T17:47:17;9.80;99.90
17986;DHT22;9118;48.122;11.546;2023-04-01T17:49:55;9.80;99.90
17986;DHT22;9118;48.122;11.546;2023-04-01T17:52:30;10.40;99.90
17986;DHT22;9118;48.122;11.546;2023-04-01T17:55:40;9.90;99.90
17986;DHT22;9118;48.122;11.546;2023-04-01T17:58:17;9.80;99.90
17986;DHT22;9118;48.122;11.546;2023-04-01T18:01:04;9.80;99.90
17986;DHT22;9118;48.122;11.546;2023-04-01T18:03:55;9.80;99.90
17986;DHT22;9118;48.122;11.546;2023-04-01T18:06:31;9.90;99.90
17986;DHT22;9118;48.122;11.546;2023-04-01T18:09:08;9.90;99.90
17986;DHT22;9118;48.122;11.546;2023-04-01T18:11:49;9.90;99.90